Aviation Digital Data Service (ADDS)

Output produced by METARs form (0601 UTC 08 December 2016)
found at http://aviationweather.gov/adds/metars/
 
KART 080539Z 0806/0906 24010KT P6SM VCSH OVC035 
     TEMPO 0806/0810 5SM -SHSN 
     FM081000 24014G20KT 4SM -SHSN OVC025 
     FM081500 25016G23KT P6SM BKN035 
     FM082300 25017G24KT P6SM OVC035 
     FM090500 28013G20KT P6SM VCSH BKN035